sensor_id;sensor_type;location;lat;lon;timestamp;temperature;humidity
4787;DHT22;62338;48.832;9.422;2022-12-07T00:01:29;1.80;99.90
4787;DHT22;62338;48.832;9.422;2022-12-07T00:03:32;1.80;99.90
4787;DHT22;62338;48.832;9.422;2022-12-07T00:05:34;1.80;99.90
4787;DHT22;62338;48.832;9.422;2022-12-07T00:07:35;1.80;99.90
4787;DHT22;62338;48.832;9.422;2022-12-07T00:09:37;1.80;99.90
4787;DHT22;62338;48.832;9.422;2022-12-07T00:11:40;1.80;99.90
4787;DHT22;62338;48.832;9.422;2022-12-07T00:13:42;1.80;99.90
4787;DHT22;62338;48.832;9.422;2022-12-07T00:15:44;1.80;99.90
4787;DHT22;62338;48.832;9.422;2022-12-07T00:17:46;1.80;99.90
4787;DHT22;62338;48.832;9.422;2022-12-07T00:19:48;1.80;99.90
4787;DHT22;62338;48.832;9.422;2022-12-07T00:21:50;1.80;99.90
4787;DHT22;62338;48.832;9.422;2022-12-07T00:23:52;1.70;99.90
4787;DHT22;62338;48.832;9.422;2022-12-07T00:25:54;1.80;99.90
4787;DHT22;62338;48.832;9.422;2022-12-07T00:27:56;1.70;99.90
4787;DHT22;62338;48.832;9.422;2022-12-07T00:29:58;1.70;99.90
4787;DHT22;62338;48.832;9.422;2022-12-07T00:32:00;1.70;99.90
4787;DHT22;62338;48.832;9.422;2022-12-07T00:34:02;1.70;99.90
4787;DHT22;62338;48.832;9.422;2022-12-07T00:36:07;1.70;99.90
4787;DHT22;62338;48.832;9.422;2022-12-07T00:38:09;1.70;99.90
4787;DHT22;62338;48.832;9.422;2022-12-07T00:40:11;1.70;99.90
4787;DHT22;62338;48.832;9.422;2022-12-07T00:42:13;1.70;99.90
4787;DHT22;62338;48.832;9.422;2022-12-07T00:44:15;1.60;99.90
4787;DHT22;62338;48.832;9.422;2022-12-07T00:46:18;1.60;99.90
4787;DHT22;62338;48.832;9.422;2022-12-07T00:48:21;1.60;99.90
4787;DHT22;62338;48.832;9.422;2022-12-07T00:50:23;1.60;99.90
4787;DHT22;62338;48.832;9.422;2022-12-07T00:52:25;1.60;99.90
4787;DHT22;62338;48.832;9.422;2022-12-07T00:54:26;1.60;99.90
4787;DHT22;62338;48.832;9.422;2022-12-07T00:56:29;1.60;99.90
4787;DHT22;62338;48.832;9.422;2022-12-07T00:58:31;1.60;99.90
4787;DHT22;62338;48.832;9.422;2022-12-07T01:00:32;1.50;99.90
4787;DHT22;62338;48.832;9.422;2022-12-07T01:02:36;1.50;99.90
4787;DHT22;62338;48.832;9.422;2022-12-07T01:04:37;1.60;99.90
4787;DHT22;62338;48.832;9.422;2022-12-07T01:06:39;1.60;99.90
4787;DHT22;62338;48.832;9.422;2022-12-07T01:08:41;1.60;99.90
4787;DHT22;62338;48.832;9.422;2022-12-07T01:10:42;1.50;99.90
4787;DHT22;62338;48.832;9.422;2022-12-07T01:12:44;1.50;99.90
4787;DHT22;62338;48.832;9.422;2022-12-07T01:14:46;1.50;99.90
4787;DHT22;62338;48.832;9.422;2022-12-07T01:16:47;1.40;99.90
4787;DHT22;62338;48.832;9.422;2022-12-07T01:18:51;1.40;99.90
4787;DHT22;62338;48.832;9.422;2022-12-07T01:21:06;1.40;99.90
4787;DHT22;62338;48.832;9.422;2022-12-07T01:23:08;1.40;99.90
4787;DHT22;62338;48.832;9.422;2022-12-07T01:25:11;1.40;99.90
4787;DHT22;62338;48.832;9.422;2022-12-07T01:27:13;1.40;99.90
4787;DHT22;62338;48.832;9.422;2022-12-07T01:29:15;1.40;99.90
4787;DHT22;62338;48.832;9.422;2022-12-07T01:31:19;1.50;99.90
4787;DHT22;62338;48.832;9.422;2022-12-07T01:33:21;1.50;99.90
4787;DHT22;62338;48.832;9.422;2022-12-07T01:35:23;1.50;99.90
4787;DHT22;62338;48.832;9.422;2022-12-07T01:37:25;1.50;99.90
4787;DHT22;62338;48.832;9.422;2022-12-07T01:39:27;1.50;99.90
4787;DHT22;62338;48.832;9.422;2022-12-07T01:41:31;1.50;99.90
4787;DHT22;62338;48.832;9.422;2022-12-07T01:43:33;1.50;99.90
4787;DHT22;62338;48.832;9.422;2022-12-07T01:45:41;1.50;99.90
4787;DHT22;62338;48.832;9.422;2022-12-07T01:47:52;1.50;99.90
4787;DHT22;62338;48.832;9.422;2022-12-07T01:49:54;1.50;99.90
4787;DHT22;62338;48.832;9.422;2022-12-07T01:52:35;1.50;99.90
4787;DHT22;62338;48.832;9.422;2022-12-07T01:54:37;1.50;99.90
4787;DHT22;62338;48.832;9.422;2022-12-07T01:56:47;1.50;99.90
4787;DHT22;62338;48.832;9.422;2022-12-07T01:58:49;1.40;99.90
4787;DHT22;62338;48.832;9.422;2022-12-07T02:00:52;1.40;99.90
4787;DHT22;62338;48.832;9.422;2022-12-07T02:03:11;1.40;99.90
4787;DHT22;62338;48.832;9.422;2022-12-07T02:05:15;1.40;99.90
4787;DHT22;62338;48.832;9.422;2022-12-07T02:07:18;1.40;99.90
4787;DHT22;62338;48.832;9.422;2022-12-07T02:09:21;1.40;99.90
4787;DHT22;62338;48.832;9.422;2022-12-07T02:11:23;1.40;99.90
4787;DHT22;62338;48.832;9.422;2022-12-07T02:13:26;1.40;99.90
4787;DHT22;62338;48.832;9.422;2022-12-07T02:20:44;1.40;99.90
4787;DHT22;62338;48.832;9.422;2022-12-07T02:23:11;1.40;99.90
4787;DHT22;62338;48.832;9.422;2022-12-07T02:27:47;1.40;99.90
4787;DHT22;62338;48.832;9.422;2022-12-07T02:30:12;1.40;99.90
4787;DHT22;62338;48.832;9.422;2022-12-07T02:35:06;1.40;99.90
4787;DHT22;62338;48.832;9.422;2022-12-07T02:39:46;1.50;99.90
4787;DHT22;62338;48.832;9.422;2022-12-07T02:41:54;1.40;99.90
4787;DHT22;62338;48.832;9.422;2022-12-07T02:44:07;1.40;99.90
4787;DHT22;62338;48.832;9.422;2022-12-07T02:46:14;1.40;99.90
4787;DHT22;62338;48.832;9.422;2022-12-07T02:48:18;1.40;99.90
4787;DHT22;62338;48.832;9.422;2022-12-07T02:50:21;1.40;99.90
4787;DHT22;62338;48.832;9.422;2022-12-07T02:52:23;1.30;99.90
4787;DHT22;62338;48.832;9.422;2022-12-07T02:54:25;1.40;99.90
4787;DHT22;62338;48.832;9.422;2022-12-07T02:56:48;1.40;99.90
4787;DHT22;62338;48.832;9.422;2022-12-07T03:01:37;1.40;99.90
4787;DHT22;62338;48.832;9.422;2022-12-07T03:03:46;1.40;99.90
4787;DHT22;62338;48.832;9.422;2022-12-07T03:06:28;1.40;99.90
4787;DHT22;62338;48.832;9.422;2022-12-07T03:18:13;1.40;99.90
4787;DHT22;62338;48.832;9.422;2022-12-07T03:20:19;1.40;99.90
4787;DHT22;62338;48.832;9.422;2022-12-07T03:22:23;1.40;99.90
4787;DHT22;62338;48.832;9.422;2022-12-07T03:24:28;1.40;99.90
4787;DHT22;62338;48.832;9.422;2022-12-07T03:26:34;1.40;99.90
4787;DHT22;62338;48.832;9.422;2022-12-07T03:28:39;1.40;99.90
4787;DHT22;62338;48.832;9.422;2022-12-07T03:30:51;1.40;99.90
4787;DHT22;62338;48.832;9.422;2022-12-07T03:33:01;1.30;99.90
4787;DHT22;62338;48.832;9.422;2022-12-07T03:35:11;1.30;99.90
4787;DHT22;62338;48.832;9.422;2022-12-07T03:37:30;1.30;99.90
4787;DHT22;62338;48.832;9.422;2022-12-07T03:39:38;1.30;99.90
4787;DHT22;62338;48.832;9.422;2022-12-07T03:41:41;1.20;99.90
4787;DHT22;62338;48.832;9.422;2022-12-07T03:43:46;1.20;99.90
4787;DHT22;62338;48.832;9.422;2022-12-07T03:48:37;1.20;99.90
4787;DHT22;62338;48.832;9.422;2022-12-07T03:50:57;1.20;99.90
4787;DHT22;62338;48.832;9.422;2022-12-07T03:53:08;1.20;99.90
4787;DHT22;62338;48.832;9.422;2022-12-07T03:55:25;1.10;99.90
4787;DHT22;62338;48.832;9.422;2022-12-07T03:57:29;1.10;99.90
4787;DHT22;62338;48.832;9.422;2022-12-07T03:59:32;1.10;99.90
4787;DHT22;62338;48.832;9.422;2022-12-07T04:01:35;1.00;99.90
4787;DHT22;62338;48.832;9.422;2022-12-07T04:03:37;1.00;99.90
4787;DHT22;62338;48.832;9.422;2022-12-07T04:05:39;0.90;99.90
4787;DHT22;62338;48.832;9.422;2022-12-07T04:07:41;0.80;99.90
4787;DHT22;62338;48.832;9.422;2022-12-07T04:09:43;0.80;99.90
4787;DHT22;62338;48.832;9.422;2022-12-07T04:11:44;0.60;99.90
4787;DHT22;62338;48.832;9.422;2022-12-07T04:13:46;0.60;99.90
4787;DHT22;62338;48.832;9.422;2022-12-07T04:16:07;0.50;99.90
4787;DHT22;62338;48.832;9.422;2022-12-07T04:18:09;0.40;99.90
4787;DHT22;62338;48.832;9.422;2022-12-07T04:20:11;0.40;99.90
4787;DHT22;62338;48.832;9.422;2022-12-07T04:22:13;0.30;99.90
4787;DHT22;62338;48.832;9.422;2022-12-07T04:24:15;0.20;99.90
4787;DHT22;62338;48.832;9.422;2022-12-07T04:26:17;0.10;99.90
4787;DHT22;62338;48.832;9.422;2022-12-07T04:28:18;0.10;99.90
4787;DHT22;62338;48.832;9.422;2022-12-07T04:30:20;0.00;99.90
4787;DHT22;62338;48.832;9.422;2022-12-07T04:32:23;0.10;99.90
4787;DHT22;62338;48.832;9.422;2022-12-07T04:34:25;0.20;99.90
4787;DHT22;62338;48.832;9.422;2022-12-07T04:36:26;0.30;99.90
4787;DHT22;62338;48.832;9.422;2022-12-07T04:38:28;0.30;99.90
4787;DHT22;62338;48.832;9.422;2022-12-07T04:40:30;0.40;99.90
4787;DHT22;62338;48.832;9.422;2022-12-07T04:42:32;0.50;99.90
4787;DHT22;62338;48.832;9.422;2022-12-07T04:44:33;0.70;99.90
4787;DHT22;62338;48.832;9.422;2022-12-07T04:46:35;0.80;99.90
4787;DHT22;62338;48.832;9.422;2022-12-07T04:48:37;0.80;99.90
4787;DHT22;62338;48.832;9.422;2022-12-07T04:50:38;0.80;99.90
4787;DHT22;62338;48.832;9.422;2022-12-07T04:52:46;0.90;99.90
4787;DHT22;62338;48.832;9.422;2022-12-07T04:54:48;0.90;99.90
4787;DHT22;62338;48.832;9.422;2022-12-07T04:56:50;0.90;99.90
4787;DHT22;62338;48.832;9.422;2022-12-07T04:58:53;0.90;99.90
4787;DHT22;62338;48.832;9.422;2022-12-07T05:00:55;0.80;99.90
4787;DHT22;62338;48.832;9.422;2022-12-07T05:02:57;0.80;99.90
4787;DHT22;62338;48.832;9.422;2022-12-07T05:04:59;0.80;99.90
4787;DHT22;62338;48.832;9.422;2022-12-07T05:07:01;0.70;99.90
4787;DHT22;62338;48.832;9.422;2022-12-07T05:09:04;0.70;99.90
4787;DHT22;62338;48.832;9.422;2022-12-07T05:11:07;0.70;99.90
4787;DHT22;62338;48.832;9.422;2022-12-07T05:13:09;0.70;99.90
4787;DHT22;62338;48.832;9.422;2022-12-07T05:15:11;0.70;99.90
4787;DHT22;62338;48.832;9.422;2022-12-07T05:17:12;0.60;99.90
4787;DHT22;62338;48.832;9.422;2022-12-07T05:19:15;0.60;99.90
4787;DHT22;62338;48.832;9.422;2022-12-07T05:21:17;0.50;99.90
4787;DHT22;62338;48.832;9.422;2022-12-07T05:23:19;0.50;99.90
4787;DHT22;62338;48.832;9.422;2022-12-07T05:25:21;0.50;99.90
4787;DHT22;62338;48.832;9.422;2022-12-07T05:27:23;0.50;99.90
4787;DHT22;62338;48.832;9.422;2022-12-07T05:29:25;0.40;99.90
4787;DHT22;62338;48.832;9.422;2022-12-07T05:31:27;0.40;99.90
4787;DHT22;62338;48.832;9.422;2022-12-07T05:33:29;0.40;99.90
4787;DHT22;62338;48.832;9.422;2022-12-07T05:35:30;0.40;99.90
4787;DHT22;62338;48.832;9.422;2022-12-07T05:37:32;0.40;99.90
4787;DHT22;62338;48.832;9.422;2022-12-07T05:39:34;0.30;99.90
4787;DHT22;62338;48.832;9.422;2022-12-07T05:41:36;0.30;99.90
4787;DHT22;62338;48.832;9.422;2022-12-07T05:43:56;0.30;99.90
4787;DHT22;62338;48.832;9.422;2022-12-07T05:45:58;0.20;99.90
4787;DHT22;62338;48.832;9.422;2022-12-07T05:48:00;0.30;99.90
4787;DHT22;62338;48.832;9.422;2022-12-07T05:50:03;0.30;99.90
4787;DHT22;62338;48.832;9.422;2022-12-07T05:52:06;0.30;99.90
4787;DHT22;62338;48.832;9.422;2022-12-07T05:54:07;0.30;99.90
4787;DHT22;62338;48.832;9.422;2022-12-07T05:56:09;0.30;99.90
4787;DHT22;62338;48.832;9.422;2022-12-07T05:58:11;0.40;99.90
4787;DHT22;62338;48.832;9.422;2022-12-07T06:00:32;0.40;99.90
4787;DHT22;62338;48.832;9.422;2022-12-07T06:02:34;0.50;99.90
4787;DHT22;62338;48.832;9.422;2022-12-07T06:04:39;0.50;99.90
4787;DHT22;62338;48.832;9.422;2022-12-07T06:06:41;0.50;99.90
4787;DHT22;62338;48.832;9.422;2022-12-07T06:08:43;0.50;99.90
4787;DHT22;62338;48.832;9.422;2022-12-07T06:10:44;0.50;99.90
4787;DHT22;62338;48.832;9.422;2022-12-07T06:12:48;0.40;99.90
4787;DHT22;62338;48.832;9.422;2022-12-07T06:14:50;0.40;99.90
4787;DHT22;62338;48.832;9.422;2022-12-07T06:16:51;0.40;99.90
4787;DHT22;62338;48.832;9.422;2022-12-07T06:18:53;0.40;99.90
4787;DHT22;62338;48.832;9.422;2022-12-07T06:20:55;0.50;99.90
4787;DHT22;62338;48.832;9.422;2022-12-07T06:22:56;0.50;99.90
4787;DHT22;62338;48.832;9.422;2022-12-07T06:24:58;0.50;99.90
4787;DHT22;62338;48.832;9.422;2022-12-07T06:27:06;0.50;99.90
4787;DHT22;62338;48.832;9.422;2022-12-07T06:29:08;0.60;99.90
4787;DHT22;62338;48.832;9.422;2022-12-07T06:31:10;0.60;99.90
4787;DHT22;62338;48.832;9.422;2022-12-07T06:33:14;0.60;99.90
4787;DHT22;62338;48.832;9.422;2022-12-07T06:35:16;0.60;99.90
4787;DHT22;62338;48.832;9.422;2022-12-07T06:37:18;0.60;99.90
4787;DHT22;62338;48.832;9.422;2022-12-07T06:39:21;0.60;99.90
4787;DHT22;62338;48.832;9.422;2022-12-07T06:41:23;0.60;99.90
4787;DHT22;62338;48.832;9.422;2022-12-07T06:43:25;0.70;99.90
4787;DHT22;62338;48.832;9.422;2022-12-07T06:45:27;0.70;99.90
4787;DHT22;62338;48.832;9.422;2022-12-07T06:47:29;0.80;99.90
4787;DHT22;62338;48.832;9.422;2022-12-07T06:49:47;0.80;99.90
4787;DHT22;62338;48.832;9.422;2022-12-07T06:51:49;0.80;99.90
4787;DHT22;62338;48.832;9.422;2022-12-07T06:53:51;0.80;99.90
4787;DHT22;62338;48.832;9.422;2022-12-07T06:55:53;0.80;99.90
4787;DHT22;62338;48.832;9.422;2022-12-07T06:57:55;0.80;99.90
4787;DHT22;62338;48.832;9.422;2022-12-07T06:59:57;0.80;99.90
4787;DHT22;62338;48.832;9.422;2022-12-07T07:01:59;0.80;99.90
4787;DHT22;62338;48.832;9.422;2022-12-07T07:04:01;0.80;99.90
4787;DHT22;62338;48.832;9.422;2022-12-07T07:06:03;0.80;99.90
4787;DHT22;62338;48.832;9.422;2022-12-07T07:08:05;0.80;99.90
4787;DHT22;62338;48.832;9.422;2022-12-07T07:10:23;0.80;99.90
4787;DHT22;62338;48.832;9.422;2022-12-07T07:12:25;0.80;99.90
4787;DHT22;62338;48.832;9.422;2022-12-07T07:14:27;0.80;99.90
4787;DHT22;62338;48.832;9.422;2022-12-07T07:16:30;0.80;99.90
4787;DHT22;62338;48.832;9.422;2022-12-07T07:18:32;0.80;99.90
4787;DHT22;62338;48.832;9.422;2022-12-07T07:20:34;0.80;99.90
4787;DHT22;62338;48.832;9.422;2022-12-07T07:22:36;0.80;99.90
4787;DHT22;62338;48.832;9.422;2022-12-07T07:24:38;0.80;99.90
4787;DHT22;62338;48.832;9.422;2022-12-07T07:26:40;0.90;99.90
4787;DHT22;62338;48.832;9.422;2022-12-07T07:28:42;0.90;99.90
4787;DHT22;62338;48.832;9.422;2022-12-07T07:30:44;0.90;99.90
4787;DHT22;62338;48.832;9.422;2022-12-07T07:32:46;0.90;99.90
4787;DHT22;62338;48.832;9.422;2022-12-07T07:34:48;0.90;99.90
4787;DHT22;62338;48.832;9.422;2022-12-07T07:36:50;0.90;99.90
4787;DHT22;62338;48.832;9.422;2022-12-07T07:38:51;0.90;99.90
4787;DHT22;62338;48.832;9.422;2022-12-07T07:40:54;0.90;99.90
4787;DHT22;62338;48.832;9.422;2022-12-07T07:42:56;1.00;99.90
4787;DHT22;62338;48.832;9.422;2022-12-07T07:44:58;1.00;99.90
4787;DHT22;62338;48.832;9.422;2022-12-07T07:47:00;1.00;99.90
4787;DHT22;62338;48.832;9.422;2022-12-07T07:49:02;1.00;99.90
4787;DHT22;62338;48.832;9.422;2022-12-07T07:51:07;1.10;99.90
4787;DHT22;62338;48.832;9.422;2022-12-07T07:53:09;1.00;99.90
4787;DHT22;62338;48.832;9.422;2022-12-07T07:55:12;1.00;99.90
4787;DHT22;62338;48.832;9.422;2022-12-07T07:57:16;1.10;99.90
4787;DHT22;62338;48.832;9.422;2022-12-07T07:59:18;1.10;99.90
4787;DHT22;62338;48.832;9.422;2022-12-07T08:01:20;1.20;99.90
4787;DHT22;62338;48.832;9.422;2022-12-07T08:03:22;1.20;99.90
4787;DHT22;62338;48.832;9.422;2022-12-07T08:05:23;1.30;99.90
4787;DHT22;62338;48.832;9.422;2022-12-07T08:07:26;1.30;99.90
4787;DHT22;62338;48.832;9.422;2022-12-07T08:09:28;1.30;99.90
4787;DHT22;62338;48.832;9.422;2022-12-07T08:11:30;1.40;99.90
4787;DHT22;62338;48.832;9.422;2022-12-07T08:13:31;1.40;99.90
4787;DHT22;62338;48.832;9.422;2022-12-07T08:15:33;1.40;99.90
4787;DHT22;62338;48.832;9.422;2022-12-07T08:17:37;1.50;99.90
4787;DHT22;62338;48.832;9.422;2022-12-07T08:19:39;1.50;99.90
4787;DHT22;62338;48.832;9.422;2022-12-07T08:21:41;1.50;99.90
4787;DHT22;62338;48.832;9.422;2022-12-07T08:23:43;1.50;99.90
4787;DHT22;62338;48.832;9.422;2022-12-07T08:25:45;1.50;99.90
4787;DHT22;62338;48.832;9.422;2022-12-07T08:27:47;1.50;99.90
4787;DHT22;62338;48.832;9.422;2022-12-07T08:29:48;1.60;99.90
4787;DHT22;62338;48.832;9.422;2022-12-07T08:31:50;1.60;99.90
4787;DHT22;62338;48.832;9.422;2022-12-07T08:33:52;1.60;99.90
4787;DHT22;62338;48.832;9.422;2022-12-07T08:35:54;1.70;99.90
4787;DHT22;62338;48.832;9.422;2022-12-07T08:37:55;1.80;99.90
4787;DHT22;62338;48.832;9.422;2022-12-07T08:39:59;1.90;99.90
4787;DHT22;62338;48.832;9.422;2022-12-07T08:42:02;2.00;80.40
4787;DHT22;62338;48.832;9.422;2022-12-07T08:44:03;2.00;37.20
4787;DHT22;62338;48.832;9.422;2022-12-07T08:48:19;2.10;57.90
4787;DHT22;62338;48.832;9.422;2022-12-07T08:50:23;2.10;57.70
4787;DHT22;62338;48.832;9.422;2022-12-07T08:52:26;2.20;79.80
4787;DHT22;62338;48.832;9.422;2022-12-07T08:54:28;2.30;72.30
4787;DHT22;62338;48.832;9.422;2022-12-07T08:56:30;2.30;21.50
4787;DHT22;62338;48.832;9.422;2022-12-07T08:58:33;2.30;1.00
4787;DHT22;62338;48.832;9.422;2022-12-07T09:00:35;2.40;1.00
4787;DHT22;62338;48.832;9.422;2022-12-07T09:02:37;2.50;1.00
4787;DHT22;62338;48.832;9.422;2022-12-07T09:04:39;2.60;1.00
4787;DHT22;62338;48.832;9.422;2022-12-07T09:06:41;2.60;1.00
4787;DHT22;62338;48.832;9.422;2022-12-07T09:08:46;2.60;1.00
4787;DHT22;62338;48.832;9.422;2022-12-07T09:10:49;2.60;1.00
4787;DHT22;62338;48.832;9.422;2022-12-07T09:12:50;2.60;1.00
4787;DHT22;62338;48.832;9.422;2022-12-07T09:14:52;2.60;1.00
4787;DHT22;62338;48.832;9.422;2022-12-07T09:16:54;2.50;1.00
4787;DHT22;62338;48.832;9.422;2022-12-07T09:18:56;2.60;1.00
4787;DHT22;62338;48.832;9.422;2022-12-07T09:20:57;2.80;1.00
4787;DHT22;62338;48.832;9.422;2022-12-07T09:22:59;2.80;1.00
4787;DHT22;62338;48.832;9.422;2022-12-07T09:25:02;2.90;1.00
4787;DHT22;62338;48.832;9.422;2022-12-07T09:27:04;3.00;1.00
4787;DHT22;62338;48.832;9.422;2022-12-07T09:29:06;3.00;1.00
4787;DHT22;62338;48.832;9.422;2022-12-07T09:31:07;3.10;1.00
4787;DHT22;62338;48.832;9.422;2022-12-07T09:33:26;3.20;1.00
4787;DHT22;62338;48.832;9.422;2022-12-07T09:35:28;3.20;1.00
4787;DHT22;62338;48.832;9.422;2022-12-07T09:37:30;3.30;1.00
4787;DHT22;62338;48.832;9.422;2022-12-07T09:39:40;3.30;1.00
4787;DHT22;62338;48.832;9.422;2022-12-07T09:41:50;3.50;1.00
4787;DHT22;62338;48.832;9.422;2022-12-07T09:43:53;3.50;1.00
4787;DHT22;62338;48.832;9.422;2022-12-07T09:45:59;3.70;1.00
4787;DHT22;62338;48.832;9.422;2022-12-07T09:48:02;3.80;1.00
4787;DHT22;62338;48.832;9.422;2022-12-07T09:50:11;3.80;1.00
4787;DHT22;62338;48.832;9.422;2022-12-07T09:52:26;3.80;1.00
4787;DHT22;62338;48.832;9.422;2022-12-07T09:54:29;3.80;1.00
4787;DHT22;62338;48.832;9.422;2022-12-07T09:56:31;3.90;1.00
4787;DHT22;62338;48.832;9.422;2022-12-07T09:58:33;3.90;1.00
4787;DHT22;62338;48.832;9.422;2022-12-07T10:00:35;3.80;1.00
4787;DHT22;62338;48.832;9.422;2022-12-07T10:02:39;3.90;1.00
4787;DHT22;62338;48.832;9.422;2022-12-07T10:04:43;3.90;1.00
4787;DHT22;62338;48.832;9.422;2022-12-07T10:06:45;3.90;1.00
4787;DHT22;62338;48.832;9.422;2022-12-07T10:08:49;4.00;1.00
4787;DHT22;62338;48.832;9.422;2022-12-07T10:10:53;3.90;1.00
4787;DHT22;62338;48.832;9.422;2022-12-07T10:15:04;3.70;1.00
4787;DHT22;62338;48.832;9.422;2022-12-07T10:19:35;3.60;1.00
4787;DHT22;62338;48.832;9.422;2022-12-07T10:21:37;3.60;1.00
4787;DHT22;62338;48.832;9.422;2022-12-07T10:28:22;3.60;1.00
4787;DHT22;62338;48.832;9.422;2022-12-07T10:30:24;3.50;1.00
4787;DHT22;62338;48.832;9.422;2022-12-07T10:32:34;3.50;1.00
4787;DHT22;62338;48.832;9.422;2022-12-07T10:34:37;3.50;1.00
4787;DHT22;62338;48.832;9.422;2022-12-07T10:36:44;3.50;1.00
4787;DHT22;62338;48.832;9.422;2022-12-07T10:38:52;3.40;1.00
4787;DHT22;62338;48.832;9.422;2022-12-07T10:41:07;3.40;1.00
4787;DHT22;62338;48.832;9.422;2022-12-07T10:45:15;3.50;1.00
4787;DHT22;62338;48.832;9.422;2022-12-07T10:47:36;3.40;1.00
4787;DHT22;62338;48.832;9.422;2022-12-07T10:50:05;3.40;1.00
4787;DHT22;62338;48.832;9.422;2022-12-07T11:04:29;3.40;1.00
4787;DHT22;62338;48.832;9.422;2022-12-07T11:14:16;3.40;1.00
4787;DHT22;62338;48.832;9.422;2022-12-07T11:16:32;3.40;1.00
4787;DHT22;62338;48.832;9.422;2022-12-07T11:21:06;3.30;1.00
4787;DHT22;62338;48.832;9.422;2022-12-07T11:23:29;3.40;1.00
4787;DHT22;62338;48.832;9.422;2022-12-07T11:28:33;3.30;1.00
4787;DHT22;62338;48.832;9.422;2022-12-07T11:30:47;3.20;1.00
4787;DHT22;62338;48.832;9.422;2022-12-07T11:37:21;3.20;1.00
4787;DHT22;62338;48.832;9.422;2022-12-07T11:39:48;3.20;1.00
4787;DHT22;62338;48.832;9.422;2022-12-07T11:42:06;3.20;1.00
4787;DHT22;62338;48.832;9.422;2022-12-07T11:46:50;3.40;1.00
4787;DHT22;62338;48.832;9.422;2022-12-07T11:49:04;3.30;1.00
4787;DHT22;62338;48.832;9.422;2022-12-07T11:51:11;3.30;1.00
4787;DHT22;62338;48.832;9.422;2022-12-07T11:53:37;3.30;1.00
4787;DHT22;62338;48.832;9.422;2022-12-07T11:55:48;3.20;1.00
4787;DHT22;62338;48.832;9.422;2022-12-07T11:58:03;3.10;1.00
4787;DHT22;62338;48.832;9.422;2022-12-07T12:00:13;3.10;1.00
4787;DHT22;62338;48.832;9.422;2022-12-07T12:02:21;3.20;1.00
4787;DHT22;62338;48.832;9.422;2022-12-07T12:04:55;3.20;1.00
4787;DHT22;62338;48.832;9.422;2022-12-07T12:07:00;3.10;1.00
4787;DHT22;62338;48.832;9.422;2022-12-07T12:09:29;3.10;19.10
4787;DHT22;62338;48.832;9.422;2022-12-07T12:16:57;3.10;60.20
4787;DHT22;62338;48.832;9.422;2022-12-07T12:21:34;3.00;80.00
4787;DHT22;62338;48.832;9.422;2022-12-07T12:23:54;3.00;94.10
4787;DHT22;62338;48.832;9.422;2022-12-07T12:26:00;3.00;74.70
4787;DHT22;62338;48.832;9.422;2022-12-07T12:28:03;2.90;95.80
4787;DHT22;62338;48.832;9.422;2022-12-07T12:30:23;2.90;99.90
4787;DHT22;62338;48.832;9.422;2022-12-07T12:32:35;2.90;99.90
4787;DHT22;62338;48.832;9.422;2022-12-07T12:34:42;2.90;99.90
4787;DHT22;62338;48.832;9.422;2022-12-07T12:36:58;2.80;99.90
4787;DHT22;62338;48.832;9.422;2022-12-07T12:39:08;2.80;99.90
4787;DHT22;62338;48.832;9.422;2022-12-07T12:43:51;2.80;99.90
4787;DHT22;62338;48.832;9.422;2022-12-07T12:48:37;2.80;99.90
4787;DHT22;62338;48.832;9.422;2022-12-07T12:50:38;2.90;99.90
4787;DHT22;62338;48.832;9.422;2022-12-07T12:55:00;2.80;99.90
4787;DHT22;62338;48.832;9.422;2022-12-07T12:57:30;2.80;99.90
4787;DHT22;62338;48.832;9.422;2022-12-07T12:59:41;2.80;99.90
4787;DHT22;62338;48.832;9.422;2022-12-07T13:01:43;2.80;99.90
4787;DHT22;62338;48.832;9.422;2022-12-07T13:03:55;2.80;99.90
4787;DHT22;62338;48.832;9.422;2022-12-07T13:08:28;2.90;99.90
4787;DHT22;62338;48.832;9.422;2022-12-07T13:10:38;2.90;99.90
4787;DHT22;62338;48.832;9.422;2022-12-07T13:12:41;2.90;99.90
4787;DHT22;62338;48.832;9.422;2022-12-07T13:14:58;2.90;99.90
4787;DHT22;62338;48.832;9.422;2022-12-07T13:17:01;2.90;99.90
4787;DHT22;62338;48.832;9.422;2022-12-07T13:21:43;3.00;99.90
4787;DHT22;62338;48.832;9.422;2022-12-07T13:28:02;2.90;86.30
4787;DHT22;62338;48.832;9.422;2022-12-07T13:30:26;2.80;99.90
4787;DHT22;62338;48.832;9.422;2022-12-07T13:32:29;2.90;99.50
4787;DHT22;62338;48.832;9.422;2022-12-07T13:34:36;2.90;99.90
4787;DHT22;62338;48.832;9.422;2022-12-07T13:36:39;2.90;99.90
4787;DHT22;62338;48.832;9.422;2022-12-07T13:38:52;2.80;94.70
4787;DHT22;62338;48.832;9.422;2022-12-07T13:41:11;2.80;99.90
4787;DHT22;62338;48.832;9.422;2022-12-07T13:43:15;2.70;99.90
4787;DHT22;62338;48.832;9.422;2022-12-07T13:45:24;2.70;99.90
4787;DHT22;62338;48.832;9.422;2022-12-07T13:47:52;2.70;99.90
4787;DHT22;62338;48.832;9.422;2022-12-07T13:49:55;2.60;99.90
4787;DHT22;62338;48.832;9.422;2022-12-07T13:54:18;2.60;99.90
4787;DHT22;62338;48.832;9.422;2022-12-07T13:56:22;2.70;99.90
4787;DHT22;62338;48.832;9.422;2022-12-07T13:58:28;2.70;99.90
4787;DHT22;62338;48.832;9.422;2022-12-07T14:00:31;2.70;99.90
4787;DHT22;62338;48.832;9.422;2022-12-07T14:02:34;2.60;99.90
4787;DHT22;62338;48.832;9.422;2022-12-07T14:04:46;2.60;99.90
4787;DHT22;62338;48.832;9.422;2022-12-07T14:06:51;2.60;99.90
4787;DHT22;62338;48.832;9.422;2022-12-07T14:09:17;2.50;99.90
4787;DHT22;62338;48.832;9.422;2022-12-07T14:11:20;2.50;99.90
4787;DHT22;62338;48.832;9.422;2022-12-07T14:14:05;2.50;99.90
4787;DHT22;62338;48.832;9.422;2022-12-07T14:16:04;2.50;99.90
4787;DHT22;62338;48.832;9.422;2022-12-07T14:18:38;2.50;99.90
4787;DHT22;62338;48.832;9.422;2022-12-07T14:20:41;2.50;99.90
4787;DHT22;62338;48.832;9.422;2022-12-07T14:22:42;2.50;99.90
4787;DHT22;62338;48.832;9.422;2022-12-07T14:24:44;2.50;99.90
4787;DHT22;62338;48.832;9.422;2022-12-07T14:26:48;2.50;99.90
4787;DHT22;62338;48.832;9.422;2022-12-07T14:28:50;2.50;99.90
4787;DHT22;62338;48.832;9.422;2022-12-07T14:30:52;2.50;99.90
4787;DHT22;62338;48.832;9.422;2022-12-07T14:32:59;2.50;99.90
4787;DHT22;62338;48.832;9.422;2022-12-07T14:35:09;2.50;99.90
4787;DHT22;62338;48.832;9.422;2022-12-07T14:37:11;2.50;99.90
4787;DHT22;62338;48.832;9.422;2022-12-07T14:39:13;2.50;99.90
4787;DHT22;62338;48.832;9.422;2022-12-07T14:41:18;2.50;99.90
4787;DHT22;62338;48.832;9.422;2022-12-07T14:43:41;2.60;99.90
4787;DHT22;62338;48.832;9.422;2022-12-07T14:46:03;2.50;99.90
4787;DHT22;62338;48.832;9.422;2022-12-07T14:48:09;2.50;99.90
4787;DHT22;62338;48.832;9.422;2022-12-07T14:50:36;2.50;99.90
4787;DHT22;62338;48.832;9.422;2022-12-07T14:52:39;2.50;99.90
4787;DHT22;62338;48.832;9.422;2022-12-07T14:55:01;2.50;99.90
4787;DHT22;62338;48.832;9.422;2022-12-07T14:57:03;2.50;99.90
4787;DHT22;62338;48.832;9.422;2022-12-07T14:59:04;2.50;99.90
4787;DHT22;62338;48.832;9.422;2022-12-07T15:01:06;2.40;99.90
4787;DHT22;62338;48.832;9.422;2022-12-07T15:03:08;2.40;99.90
4787;DHT22;62338;48.832;9.422;2022-12-07T15:05:10;2.30;99.90
4787;DHT22;62338;48.832;9.422;2022-12-07T15:07:19;2.30;99.90
4787;DHT22;62338;48.832;9.422;2022-12-07T15:09:21;2.20;99.90
4787;DHT22;62338;48.832;9.422;2022-12-07T15:11:23;2.20;99.90
4787;DHT22;62338;48.832;9.422;2022-12-07T15:13:25;2.20;99.90
4787;DHT22;62338;48.832;9.422;2022-12-07T15:15:49;2.20;99.90
4787;DHT22;62338;48.832;9.422;2022-12-07T15:17:52;2.20;99.90
4787;DHT22;62338;48.832;9.422;2022-12-07T15:19:53;2.20;99.90
4787;DHT22;62338;48.832;9.422;2022-12-07T15:21:56;2.20;99.90
4787;DHT22;62338;48.832;9.422;2022-12-07T15:23:58;2.20;99.90